createdAt,value
2019-01-05T00:00:30.621Z,5.10
2019-01-05T00:03:30.849Z,5.10
2019-01-05T00:06:25.706Z,5.10
2019-01-05T00:09:24.914Z,5.10
2019-01-05T00:12:30.507Z,5.10
2019-01-05T00:15:24.238Z,5.10
2019-01-05T00:18:18.006Z,5.20
2019-01-05T00:21:10.831Z,5.10
2019-01-05T00:23:59.598Z,5.10
2019-01-05T00:27:03.735Z,5.10
2019-01-05T00:30:00.573Z,5.10
2019-01-05T00:32:52.289Z,5.10
2019-01-05T00:36:01.111Z,5.10
2019-01-05T00:39:10.084Z,5.10
2019-01-05T00:42:00.774Z,5.10
2019-01-05T00:44:51.059Z,5.10
2019-01-05T00:47:40.860Z,5.10
2019-01-05T00:50:30.531Z,5.20
2019-01-05T00:53:23.462Z,5.10
2019-01-05T00:56:14.334Z,5.20
2019-01-05T00:59:03.886Z,5.20
2019-01-05T01:01:53.267Z,5.20
2019-01-05T01:04:42.515Z,5.10
2019-01-05T01:07:39.307Z,5.20
2019-01-05T01:10:28.306Z,5.20
2019-01-05T01:13:37.566Z,5.10
2019-01-05T01:16:35.022Z,5.10
2019-01-05T01:19:34.818Z,5.20
2019-01-05T01:22:18.277Z,5.20
2019-01-05T01:25:15.236Z,5.20
2019-01-05T01:28:04.355Z,5.30
2019-01-05T01:30:54.469Z,5.20
2019-01-05T01:33:44.685Z,5.30
2019-01-05T01:36:40.840Z,5.20
2019-01-05T01:39:25.171Z,5.20
2019-01-05T01:42:19.460Z,5.20
2019-01-05T01:45:07.448Z,5.30
2019-01-05T01:47:59.038Z,5.30
2019-01-05T01:50:50.495Z,5.20
2019-01-05T01:53:41.940Z,5.20
2019-01-05T01:56:45.577Z,5.20
2019-01-05T02:00:09.945Z,5.20
2019-01-05T02:03:05.866Z,5.10
2019-01-05T02:05:54.627Z,5.10
2019-01-05T02:08:46.708Z,5.10
2019-01-05T02:11:43.001Z,5.10
2019-01-05T02:14:41.224Z,5.10
2019-01-05T02:17:47.538Z,5.10
2019-01-05T02:20:53.103Z,5.10
2019-01-05T02:24:30.479Z,5.10
2019-01-05T02:28:03.368Z,5.10
2019-01-05T02:31:40.492Z,5.00
2019-01-05T02:35:04.165Z,5.10
2019-01-05T02:38:36.182Z,5.00
2019-01-05T02:42:23.281Z,5.00
2019-01-05T02:45:50.609Z,5.00
2019-01-05T02:49:14.982Z,5.00
2019-01-05T02:52:21.605Z,5.10
2019-01-05T02:56:02.843Z,5.10
2019-01-05T02:59:58.086Z,5.10
2019-01-05T03:03:12.539Z,5.10
2019-01-05T03:06:59.779Z,5.10
2019-01-05T03:10:39.114Z,5.10
2019-01-05T03:14:06.379Z,5.10
2019-01-05T03:17:17.891Z,5.10
2019-01-05T03:20:59.927Z,5.10
2019-01-05T03:24:37.981Z,5.10
2019-01-05T03:28:22.711Z,5.10
2019-01-05T03:32:06.861Z,5.10
2019-01-05T03:35:49.863Z,5.20
2019-01-05T03:38:57.797Z,5.10
2019-01-05T03:42:35.851Z,5.20
2019-01-05T03:46:28.750Z,5.20
2019-01-05T03:49:51.466Z,5.20
2019-01-05T03:53:21.326Z,5.20
2019-01-05T03:57:04.572Z,5.20
2019-01-05T04:00:30.409Z,5.30
2019-01-05T04:03:45.517Z,5.30
2019-01-05T04:07:23.402Z,5.30
2019-01-05T04:11:25.087Z,5.30
2019-01-05T04:15:11.569Z,5.30
2019-01-05T04:18:24.107Z,5.30
2019-01-05T04:21:51.352Z,5.30
2019-01-05T04:25:20.362Z,5.20
2019-01-05T04:29:00.122Z,5.20
2019-01-05T04:32:19.430Z,5.20
2019-01-05T04:35:39.250Z,5.10
2019-01-05T04:39:07.544Z,5.10
2019-01-05T04:42:28.162Z,5.10
2019-01-05T04:45:56.058Z,5.00
2019-01-05T04:49:30.819Z,5.00
2019-01-05T04:53:04.389Z,5.00
2019-01-05T04:56:52.619Z,5.00
2019-01-05T05:00:08.612Z,5.00
2019-01-05T05:03:57.138Z,4.90
2019-01-05T05:07:45.366Z,4.90
2019-01-05T05:11:31.877Z,5.00
2019-01-05T05:15:23.130Z,5.00
2019-01-05T05:18:49.221Z,5.00
2019-01-05T05:22:14.427Z,5.00
2019-01-05T05:26:07.290Z,5.00
2019-01-05T05:29:53.149Z,5.10
2019-01-05T05:33:16.895Z,5.10
2019-01-05T05:37:06.684Z,5.10
2019-01-05T05:40:35.946Z,5.10
2019-01-05T05:44:02.366Z,5.10
2019-01-05T05:47:34.724Z,5.10
2019-01-05T05:51:03.646Z,5.20
2019-01-05T05:54:45.693Z,5.20
2019-01-05T05:58:10.455Z,5.20
2019-01-05T06:01:35.602Z,5.20
2019-01-05T06:04:52.675Z,5.30
2019-01-05T06:08:30.705Z,5.30
2019-01-05T06:11:50.319Z,5.30
2019-01-05T06:15:40.647Z,5.30
2019-01-05T06:19:15.574Z,5.40
2019-01-05T06:22:57.889Z,5.30
2019-01-05T06:26:13.758Z,5.30
2019-01-05T06:29:22.104Z,5.30
2019-01-05T06:32:47.730Z,5.20
2019-01-05T06:36:23.180Z,5.10
2019-01-05T06:39:53.360Z,5.10
2019-01-05T06:43:25.976Z,5.00
2019-01-05T06:46:55.686Z,4.90
2019-01-05T06:50:18.722Z,4.90
2019-01-05T06:53:52.677Z,4.90
2019-01-05T06:57:32.910Z,4.90
2019-01-05T07:01:05.812Z,4.90
2019-01-05T07:04:27.291Z,4.80
2019-01-05T07:08:09.894Z,4.90
2019-01-05T07:11:45.458Z,5.00
2019-01-05T07:15:17.480Z,5.10
2019-01-05T07:19:11.574Z,5.20
2019-01-05T07:22:44.944Z,5.20
2019-01-05T07:26:10.129Z,5.10
2019-01-05T07:29:39.594Z,5.10
2019-01-05T07:33:28.486Z,5.10
2019-01-05T07:37:20.864Z,5.10
2019-01-05T07:41:10.740Z,5.10
2019-01-05T07:44:54.180Z,5.00
2019-01-05T07:48:45.705Z,5.00
2019-01-05T07:52:10.673Z,5.00
2019-01-05T07:55:49.010Z,5.00
2019-01-05T07:59:10.464Z,5.00
2019-01-05T08:02:54.209Z,5.00
2019-01-05T08:06:40.005Z,5.00
2019-01-05T08:10:15.729Z,5.00
2019-01-05T08:13:42.883Z,4.90
2019-01-05T08:17:15.898Z,5.10
2019-01-05T08:20:48.623Z,5.20
2019-01-05T08:24:23.913Z,5.20
2019-01-05T08:27:51.456Z,5.30
2019-01-05T08:31:22.384Z,5.30
2019-01-05T08:35:15.712Z,5.40
2019-01-05T08:39:07.177Z,5.60
2019-01-05T08:42:39.734Z,5.90
2019-01-05T08:46:24.739Z,5.70
2019-01-05T08:50:09.027Z,5.60
2019-01-05T08:53:54.609Z,5.50
2019-01-05T08:57:18.408Z,5.40
2019-01-05T09:01:00.804Z,5.30
2019-01-05T09:04:34.068Z,5.30
2019-01-05T09:08:27.225Z,5.30
2019-01-05T09:11:53.468Z,5.40
2019-01-05T09:15:16.537Z,5.30
2019-01-05T09:18:45.824Z,5.40
2019-01-05T09:22:25.613Z,5.50
2019-01-05T09:25:57.789Z,5.70
2019-01-05T09:29:27.470Z,5.70
2019-01-05T09:33:00.195Z,5.70
2019-01-05T09:36:39.048Z,5.80
2019-01-05T09:40:33.440Z,5.70
2019-01-05T09:43:56.548Z,5.60
2019-01-05T09:47:12.300Z,5.50
2019-01-05T09:50:51.336Z,5.60
2019-01-05T09:54:42.650Z,5.80
2019-01-05T09:58:17.560Z,6.10
2019-01-05T10:02:02.641Z,6.10
2019-01-05T10:05:41.299Z,6.10
2019-01-05T10:09:11.785Z,5.70
2019-01-05T10:12:57.167Z,5.50
2019-01-05T10:17:05.151Z,5.40
2019-01-05T10:20:46.030Z,5.30
2019-01-05T10:24:24.986Z,5.40
2019-01-05T10:27:48.760Z,5.40
2019-01-05T10:31:37.375Z,5.60
2019-01-05T10:35:19.425Z,5.40
2019-01-05T10:38:59.506Z,5.20
2019-01-05T10:42:44.884Z,5.00
2019-01-05T10:46:15.430Z,5.00
2019-01-05T10:49:51.604Z,5.20
2019-01-05T10:53:29.905Z,5.30
2019-01-05T10:57:17.246Z,5.30
2019-01-05T11:00:47.480Z,5.20
2019-01-05T11:04:30.997Z,5.10
2019-01-05T11:08:16.551Z,5.20
2019-01-05T11:12:11.765Z,5.20
2019-01-05T11:15:43.947Z,5.20
2019-01-05T11:18:55.718Z,5.30
2019-01-05T11:22:52.090Z,5.30
2019-01-05T11:26:32.322Z,5.40
2019-01-05T11:30:09.792Z,5.40
2019-01-05T11:34:00.267Z,5.20
2019-01-05T11:37:51.729Z,5.20
2019-01-05T11:41:38.403Z,5.20
2019-01-05T11:45:04.821Z,5.20
2019-01-05T11:48:59.632Z,5.20
2019-01-05T11:52:48.565Z,5.20
2019-01-05T11:56:31.205Z,5.10
2019-01-05T11:59:56.676Z,5.20
2019-01-05T12:03:34.604Z,5.20
2019-01-05T12:07:13.631Z,5.20
2019-01-05T12:10:58.825Z,5.30
2019-01-05T12:15:00.637Z,5.30
2019-01-05T12:18:23.413Z,5.30
2019-01-05T12:21:53.279Z,5.30
2019-01-05T12:25:30.039Z,5.10
2019-01-05T12:29:00.366Z,4.60
2019-01-05T12:32:14.957Z,4.60
2019-01-05T12:35:53.542Z,4.60
2019-01-05T12:39:19.708Z,4.80
2019-01-05T12:42:46.134Z,4.90
2019-01-05T12:46:32.374Z,4.80
2019-01-05T12:49:57.950Z,4.80
2019-01-05T12:53:37.076Z,4.70
2019-01-05T12:57:06.701Z,4.60
2019-01-05T13:00:56.713Z,4.60
2019-01-05T13:04:19.838Z,4.60
2019-01-05T13:08:06.287Z,4.60
2019-01-05T13:11:54.113Z,4.70
2019-01-05T13:16:08.091Z,4.50
2019-01-05T13:19:40.118Z,4.50
2019-01-05T13:23:17.237Z,4.30
2019-01-05T13:26:52.687Z,4.50
2019-01-05T13:30:17.929Z,4.50
2019-01-05T13:34:06.397Z,4.40
2019-01-05T13:37:33.472Z,4.40
2019-01-05T13:40:58.901Z,4.20
2019-01-05T13:44:40.842Z,4.30
2019-01-05T13:48:16.554Z,4.30
2019-01-05T13:51:48.061Z,4.30
2019-01-05T13:54:37.643Z,4.30
2019-01-05T13:57:30.398Z,3.80
2019-01-05T14:00:29.945Z,3.70
2019-01-05T14:03:38.917Z,3.70
2019-01-05T14:06:22.294Z,3.70
2019-01-05T14:09:18.455Z,3.70
2019-01-05T14:12:21.058Z,3.70
2019-01-05T14:15:21.789Z,3.70
2019-01-05T14:18:11.249Z,3.70
2019-01-05T14:21:00.831Z,3.60
2019-01-05T14:24:06.501Z,3.60
2019-01-05T14:27:08.824Z,3.60
2019-01-05T14:29:59.203Z,3.70
2019-01-05T14:32:45.396Z,3.70
2019-01-05T14:35:39.000Z,3.70
2019-01-05T14:38:41.390Z,3.70
2019-01-05T14:41:38.161Z,3.70
2019-01-05T14:44:37.779Z,3.80
2019-01-05T14:47:37.594Z,3.80
2019-01-05T14:50:34.183Z,3.90
2019-01-05T14:53:30.278Z,4.00
2019-01-05T14:56:19.511Z,4.00
2019-01-05T14:59:08.658Z,3.90
2019-01-05T15:02:00.965Z,3.60
2019-01-05T15:04:50.252Z,3.60
2019-01-05T15:07:40.847Z,3.50
2019-01-05T15:10:47.037Z,3.40
2019-01-05T15:13:52.588Z,3.40
2019-01-05T15:16:42.126Z,3.50
2019-01-05T15:19:31.127Z,3.50
2019-01-05T15:22:31.492Z,3.60
2019-01-05T15:25:29.603Z,3.40
2019-01-05T15:28:20.334Z,3.30
2019-01-05T15:31:11.615Z,3.20
2019-01-05T15:34:02.419Z,3.30
2019-01-05T15:36:52.043Z,3.20
2019-01-05T15:39:41.366Z,3.20
2019-01-05T15:42:38.306Z,3.30
2019-01-05T15:45:28.151Z,3.30
2019-01-05T15:48:18.696Z,3.30
2019-01-05T15:51:27.614Z,3.40
2019-01-05T15:54:24.161Z,3.20
2019-01-05T15:57:19.348Z,3.20
2019-01-05T16:00:00.196Z,3.30
2019-01-05T16:03:06.664Z,3.40
2019-01-05T16:05:56.554Z,3.40
2019-01-05T16:08:53.498Z,3.50
2019-01-05T16:11:42.657Z,3.50
2019-01-05T16:14:37.242Z,3.40
2019-01-05T16:17:28.489Z,3.30
2019-01-05T16:20:22.808Z,3.40
2019-01-05T16:23:12.115Z,3.30
2019-01-05T16:26:13.382Z,3.20
2019-01-05T16:29:05.921Z,3.20
2019-01-05T16:31:54.715Z,3.20
2019-01-05T16:34:51.713Z,3.30
2019-01-05T16:37:51.529Z,3.30
2019-01-05T16:40:47.885Z,3.20
2019-01-05T16:43:44.308Z,3.20
2019-01-05T16:46:47.225Z,3.10
2019-01-05T16:49:30.624Z,3.10
2019-01-05T16:52:39.280Z,3.00
2019-01-05T16:55:35.756Z,2.90
2019-01-05T16:58:31.156Z,2.90
2019-01-05T17:01:22.768Z,2.90
2019-01-05T17:04:13.339Z,2.90
2019-01-05T17:07:07.747Z,2.90
2019-01-05T17:09:58.139Z,2.90
2019-01-05T17:12:54.665Z,3.00
2019-01-05T17:15:37.887Z,2.90
2019-01-05T17:18:28.920Z,2.90
2019-01-05T17:21:37.593Z,3.10
2019-01-05T17:24:35.154Z,3.10
2019-01-05T17:27:24.384Z,3.10
2019-01-05T17:30:23.272Z,3.10
2019-01-05T17:33:26.758Z,3.20
2019-01-05T17:36:29.269Z,3.30
2019-01-05T17:39:25.863Z,3.30
2019-01-05T17:42:25.371Z,3.40
2019-01-05T17:45:24.255Z,3.40
2019-01-05T17:48:14.726Z,3.40
2019-01-05T17:51:05.537Z,3.30
2019-01-05T17:53:55.344Z,3.30
2019-01-05T17:56:44.761Z,3.30
2019-01-05T17:59:38.321Z,3.30
2019-01-05T18:02:41.098Z,3.30
2019-01-05T18:05:37.443Z,3.40
2019-01-05T18:08:28.455Z,3.40
2019-01-05T18:11:24.960Z,3.40
2019-01-05T18:14:22.018Z,3.30
2019-01-05T18:17:12.493Z,3.20
2019-01-05T18:20:02.885Z,3.20
2019-01-05T18:22:53.681Z,3.20
2019-01-05T18:25:42.171Z,3.20
2019-01-05T18:28:32.488Z,3.10
2019-01-05T18:31:31.948Z,3.20
2019-01-05T18:34:27.373Z,3.10
2019-01-05T18:37:20.765Z,3.20
2019-01-05T18:40:10.274Z,3.30
2019-01-05T18:43:07.192Z,3.40
2019-01-05T18:45:56.079Z,3.10
2019-01-05T18:48:45.561Z,2.80
2019-01-05T18:51:54.318Z,2.90
2019-01-05T18:54:44.326Z,2.90
2019-01-05T18:57:34.365Z,2.90
2019-01-05T19:00:30.590Z,2.90
2019-01-05T19:03:25.273Z,3.00
2019-01-05T19:06:15.990Z,3.10
2019-01-05T19:09:05.575Z,3.10
2019-01-05T19:11:57.214Z,3.20
2019-01-05T19:14:53.748Z,3.30
2019-01-05T19:18:00.032Z,3.00
2019-01-05T19:20:49.770Z,2.80
2019-01-05T19:24:00.840Z,2.80
2019-01-05T19:26:57.080Z,2.80
2019-01-05T19:29:53.603Z,2.90
2019-01-05T19:32:49.281Z,3.00
2019-01-05T19:35:48.697Z,3.10
2019-01-05T19:38:38.467Z,3.00
2019-01-05T19:41:27.946Z,2.90
2019-01-05T19:44:24.832Z,2.90
2019-01-05T19:47:14.254Z,2.80
2019-01-05T19:50:03.910Z,2.90
2019-01-05T19:53:06.926Z,2.90
2019-01-05T19:56:00.805Z,3.00
2019-01-05T19:58:54.184Z,3.00
2019-01-05T20:01:43.578Z,3.10
2019-01-05T20:04:49.425Z,3.00
2019-01-05T20:07:46.766Z,2.90
2019-01-05T20:10:41.947Z,2.80
2019-01-05T20:13:31.470Z,2.80
2019-01-05T20:16:36.090Z,2.90
2019-01-05T20:19:25.679Z,3.00
2019-01-05T20:22:19.650Z,3.00
2019-01-05T20:25:12.388Z,3.00
2019-01-05T20:28:12.343Z,2.90
2019-01-05T20:31:09.377Z,2.80
2019-01-05T20:34:06.281Z,2.80
2019-01-05T20:37:11.750Z,2.90
2019-01-05T20:40:11.482Z,2.90
2019-01-05T20:43:20.119Z,2.90
2019-01-05T20:46:09.660Z,3.00
2019-01-05T20:49:03.742Z,3.20
2019-01-05T20:52:00.397Z,3.10
2019-01-05T20:54:59.641Z,3.10
2019-01-05T20:58:08.648Z,2.90
2019-01-05T21:00:58.127Z,2.70
2019-01-05T21:03:49.360Z,2.80
2019-01-05T21:06:36.230Z,2.90
2019-01-05T21:09:39.183Z,2.80
2019-01-05T21:12:30.098Z,2.60
2019-01-05T21:15:20.368Z,2.70
2019-01-05T21:18:07.681Z,2.70
2019-01-05T21:21:01.126Z,2.60
2019-01-05T21:23:51.372Z,2.60
2019-01-05T21:26:40.779Z,2.60
2019-01-05T21:29:30.335Z,2.60
2019-01-05T21:32:19.799Z,2.70
2019-01-05T21:35:10.591Z,2.80
2019-01-05T21:38:01.994Z,2.70
2019-01-05T21:40:51.611Z,2.60
2019-01-05T21:43:41.676Z,2.50
2019-01-05T21:46:32.568Z,2.50
2019-01-05T21:49:23.359Z,2.50
2019-01-05T21:52:13.249Z,2.60
2019-01-05T21:55:06.816Z,2.70
2019-01-05T21:57:59.247Z,2.70
2019-01-05T22:00:50.778Z,2.80
2019-01-05T22:03:47.953Z,2.80
2019-01-05T22:06:37.475Z,2.80
2019-01-05T22:09:41.066Z,2.80
2019-01-05T22:12:30.738Z,2.70
2019-01-05T22:15:21.302Z,2.70
2019-01-05T22:18:23.535Z,2.60
2019-01-05T22:21:10.993Z,2.50
2019-01-05T22:24:04.982Z,2.50
2019-01-05T22:26:54.544Z,2.50
2019-01-05T22:29:54.639Z,2.50
2019-01-05T22:32:44.856Z,2.50
2019-01-05T22:35:44.763Z,2.40
2019-01-05T22:38:48.055Z,2.30
2019-01-05T22:41:41.462Z,2.30
2019-01-05T22:44:41.255Z,2.40
2019-01-05T22:47:47.136Z,2.40
2019-01-05T22:50:37.159Z,2.40
2019-01-05T22:53:47.024Z,2.30
2019-01-05T22:56:40.902Z,2.40
2019-01-05T22:59:30.028Z,2.40
2019-01-05T23:02:24.120Z,2.40
2019-01-05T23:05:15.821Z,2.40
2019-01-05T23:08:25.000Z,2.40
2019-01-05T23:11:15.057Z,2.50
2019-01-05T23:14:19.464Z,2.50
2019-01-05T23:17:28.720Z,2.50
2019-01-05T23:20:18.351Z,2.60
2019-01-05T23:23:04.750Z,2.50
2019-01-05T23:26:01.869Z,2.50
2019-01-05T23:29:14.790Z,2.50
2019-01-05T23:32:01.993Z,2.40
2019-01-05T23:34:51.499Z,2.40
2019-01-05T23:37:48.454Z,2.40
2019-01-05T23:40:37.945Z,2.40
2019-01-05T23:43:36.226Z,2.40
2019-01-05T23:46:33.024Z,2.30
2019-01-05T23:49:22.340Z,2.40
2019-01-05T23:52:10.410Z,2.50
2019-01-05T23:54:55.042Z,2.50
2019-01-05T23:58:00.895Z,2.50
